S. Maria Di Leuca, Italy
Alba: 4:23 AM UTC1
Tramonto: 7:02 PM UTC1
 Lat: 39.82N, Lon: 18.35E
ICAO Used: LIBY
Condizioni Meteo Attuali Aggiornate: 25.05.2018 alle 13:55 UTC
Parz Nuvoloso
Parz Nuvoloso
Parz Nuvoloso
Temp: 21°C
Umidita': 88%
Direz/Vel. Vento: SSW 5 / KT raffiche
Pressione: 1013 hPa
Punto di rugiada: 19°C
Temperatura percepita: 22°C
Visibilitą: >10 KM (ottima)
Temperatura percepita in
presenza di vento (Wind Chill)
:
N/D
T. max (ultime 24 ore): 23°C
T. min (ultime 24 ore): 18°C


METAR ORIGINALE
LIBY 251355Z 20005KT 9999 FEW025 21/19 Q1013 RMK FEW QUK 2 QUL 1 S VIS MAR 12 KM VIS MIN 9999



[ Indietro ]


Elaborazione dati by Datameteo.com - Lrc srl Copyright ©, All rights reserved.